createdAt,value
2022-08-14T00:02:01.607Z,65.36
2022-08-14T00:04:36.065Z,65.67
2022-08-14T00:07:13.738Z,65.10
2022-08-14T00:10:02.577Z,65.41
2022-08-14T00:12:37.732Z,65.83
2022-08-14T00:15:43.374Z,66.02
2022-08-14T00:18:30.208Z,66.29
2022-08-14T00:21:01.335Z,66.65
2022-08-14T00:23:28.232Z,66.77
2022-08-14T00:26:05.738Z,67.23
2022-08-14T00:28:36.084Z,66.95
2022-08-14T00:31:06.541Z,66.63
2022-08-14T00:33:52.532Z,66.35
2022-08-14T00:36:35.580Z,66.25
2022-08-14T00:39:15.062Z,65.22
2022-08-14T00:41:49.011Z,64.95
2022-08-14T00:44:21.397Z,66.17
2022-08-14T00:46:58.816Z,66.66
2022-08-14T00:49:26.254Z,67.01
2022-08-14T00:51:53.557Z,67.22
2022-08-14T00:54:21.840Z,67.23
2022-08-14T00:56:55.567Z,67.05
2022-08-14T00:59:28.598Z,66.59
2022-08-14T01:02:00.374Z,66.14
2022-08-14T01:04:51.822Z,66.52
2022-08-14T01:07:21.181Z,66.38
2022-08-14T01:10:01.656Z,66.15
2022-08-14T01:12:29.679Z,65.85
2022-08-14T01:14:59.442Z,65.59
2022-08-14T01:17:49.321Z,65.24
2022-08-14T01:20:39.467Z,65.44
2022-08-14T01:23:16.814Z,65.65
2022-08-14T01:25:51.267Z,65.92
2022-08-14T01:28:47.379Z,66.56
2022-08-14T01:31:15.592Z,66.82
2022-08-14T01:35:15.751Z,66.95
2022-08-14T01:36:39.130Z,67.25
2022-08-14T01:39:17.287Z,68.86
2022-08-14T01:41:56.294Z,69.80
2022-08-14T01:44:32.800Z,70.50
2022-08-14T01:47:21.935Z,70.85
2022-08-14T01:49:59.601Z,71.93
2022-08-14T01:52:58.542Z,71.73
2022-08-14T01:55:33.127Z,71.91
2022-08-14T01:58:20.193Z,71.26
2022-08-14T02:00:54.960Z,70.81
2022-08-14T02:03:30.910Z,71.16
2022-08-14T02:06:03.946Z,71.09
2022-08-14T02:08:52.985Z,71.25
2022-08-14T02:11:23.729Z,70.81
2022-08-14T02:14:07.097Z,70.47
2022-08-14T02:16:45.547Z,70.38
2022-08-14T02:19:16.491Z,70.22
2022-08-14T02:21:48.925Z,70.00
2022-08-14T02:24:39.207Z,70.12
2022-08-14T02:28:25.236Z,70.52
2022-08-14T02:30:00.605Z,71.18
2022-08-14T02:32:36.047Z,72.17
2022-08-14T02:35:13.609Z,72.49
2022-08-14T02:37:48.469Z,73.83
2022-08-14T02:40:20.879Z,74.25
2022-08-14T02:43:00.176Z,75.13
2022-08-14T02:45:38.532Z,75.79
2022-08-14T02:49:03.797Z,75.89
2022-08-14T02:51:02.541Z,75.64
2022-08-14T02:53:33.582Z,75.12
2022-08-14T02:56:29.532Z,75.63
2022-08-14T02:58:55.797Z,75.72
2022-08-14T03:01:31.387Z,75.89
2022-08-14T03:04:12.541Z,75.59
2022-08-14T03:06:57.455Z,74.93
2022-08-14T03:10:25.189Z,74.15
2022-08-14T03:12:26.989Z,74.15
2022-08-14T03:15:14.200Z,73.77
2022-08-14T03:17:57.432Z,74.12
2022-08-14T03:20:30.229Z,74.10
2022-08-14T03:23:02.768Z,73.85
2022-08-14T03:25:33.285Z,73.16
2022-08-14T03:28:07.746Z,72.93
2022-08-14T03:30:42.012Z,72.75
2022-08-14T03:33:12.471Z,72.54
2022-08-14T03:36:07.839Z,72.32
2022-08-14T03:39:15.918Z,72.38
2022-08-14T03:41:26.517Z,72.25
2022-08-14T03:44:01.179Z,72.12
2022-08-14T03:46:51.938Z,72.25
2022-08-14T03:49:29.458Z,72.34
2022-08-14T03:52:00.676Z,72.40
2022-08-14T03:54:28.833Z,72.15
2022-08-14T03:57:00.658Z,72.30
2022-08-14T03:59:31.626Z,72.02
2022-08-14T04:02:02.189Z,72.81
2022-08-14T04:04:31.339Z,73.70
2022-08-14T04:07:00.146Z,74.22
2022-08-14T04:09:28.073Z,73.94
2022-08-14T04:11:56.011Z,74.80
2022-08-14T04:14:25.308Z,75.87
2022-08-14T04:16:52.652Z,76.72
2022-08-14T04:19:23.636Z,77.44
2022-08-14T04:22:03.454Z,78.72
2022-08-14T04:24:38.048Z,79.13
2022-08-14T04:27:11.452Z,80.33
2022-08-14T04:29:44.995Z,81.33
2022-08-14T04:33:02.566Z,82.38
2022-08-14T04:35:07.475Z,82.92
2022-08-14T04:37:56.445Z,83.00
2022-08-14T04:40:41.964Z,84.04
2022-08-14T04:43:38.297Z,84.74
2022-08-14T04:46:10.043Z,85.06
2022-08-14T04:48:43.797Z,84.93
2022-08-14T04:51:22.335Z,84.65
2022-08-14T04:53:50.596Z,84.84
2022-08-14T04:56:31.186Z,85.43
2022-08-14T04:59:09.483Z,86.35
2022-08-14T05:01:40.105Z,86.38
2022-08-14T05:04:08.650Z,87.22
2022-08-14T05:06:41.967Z,86.63
2022-08-14T05:09:14.019Z,86.45
2022-08-14T05:11:42.529Z,86.20
2022-08-14T05:14:32.979Z,86.26
2022-08-14T05:17:01.512Z,85.73
2022-08-14T05:19:32.013Z,86.06
2022-08-14T05:22:17.821Z,85.20
2022-08-14T05:24:50.266Z,85.03
2022-08-14T05:27:19.888Z,84.99
2022-08-14T05:29:56.914Z,84.38
2022-08-14T05:32:27.278Z,84.60
2022-08-14T05:34:58.049Z,84.39
2022-08-14T05:37:27.159Z,84.30
2022-08-14T05:39:55.376Z,84.36
2022-08-14T05:42:29.042Z,84.20
2022-08-14T05:44:59.569Z,84.25
2022-08-14T05:47:28.964Z,83.65
2022-08-14T05:50:17.510Z,83.80
2022-08-14T05:52:51.084Z,83.36
2022-08-14T05:55:22.700Z,83.23
2022-08-14T05:58:04.481Z,82.87
2022-08-14T06:00:39.623Z,82.91
2022-08-14T06:03:10.720Z,82.41
2022-08-14T06:05:38.592Z,81.85
2022-08-14T06:08:31.256Z,80.86
2022-08-14T06:11:04.321Z,79.44
2022-08-14T06:13:45.304Z,78.34
2022-08-14T06:16:17.435Z,78.08
2022-08-14T06:18:48.554Z,77.00
2022-08-14T06:21:19.361Z,76.86
2022-08-14T06:23:48.954Z,76.60
2022-08-14T06:26:16.380Z,75.79
2022-08-14T06:28:47.954Z,75.15
2022-08-14T06:31:21.008Z,74.64
2022-08-14T06:35:10.162Z,74.49
2022-08-14T06:36:38.455Z,73.40
2022-08-14T06:39:08.118Z,72.59
2022-08-14T06:41:58.595Z,72.44
2022-08-14T06:44:30.287Z,72.45
2022-08-14T06:47:02.586Z,71.87
2022-08-14T06:49:30.207Z,71.17
2022-08-14T06:51:57.681Z,70.91
2022-08-14T06:54:31.297Z,70.33
2022-08-14T06:56:59.071Z,70.55
2022-08-14T06:59:26.304Z,70.46
2022-08-14T07:02:17.572Z,70.09
2022-08-14T07:05:05.500Z,69.77
2022-08-14T07:07:41.427Z,69.58
2022-08-14T07:10:17.050Z,68.99
2022-08-14T07:13:00.850Z,68.58
2022-08-14T07:15:32.320Z,67.54
2022-08-14T07:18:00.450Z,67.52
2022-08-14T07:20:30.571Z,66.29
2022-08-14T07:23:07.712Z,65.83
2022-08-14T07:25:43.636Z,65.18
2022-08-14T07:28:20.839Z,65.00
2022-08-14T07:30:50.874Z,65.05
2022-08-14T07:33:24.914Z,65.41
2022-08-14T07:36:00.802Z,64.55
2022-08-14T07:38:35.436Z,64.01
2022-08-14T07:41:12.050Z,64.48
2022-08-14T07:43:44.205Z,64.09
2022-08-14T07:46:16.164Z,63.46
2022-08-14T07:48:48.635Z,63.44
2022-08-14T07:51:15.508Z,63.30
2022-08-14T07:53:42.509Z,63.53
2022-08-14T07:56:43.890Z,62.84
2022-08-14T07:59:00.510Z,62.91
2022-08-14T08:01:30.900Z,62.96
2022-08-14T08:04:01.639Z,62.82
2022-08-14T08:06:30.825Z,62.18
2022-08-14T08:09:01.453Z,62.36
2022-08-14T08:11:37.371Z,61.84
2022-08-14T08:14:10.783Z,61.42
2022-08-14T08:16:47.363Z,61.06
2022-08-14T08:19:19.116Z,60.46
2022-08-14T08:21:47.029Z,60.68
2022-08-14T08:24:20.041Z,60.32
2022-08-14T08:26:50.338Z,60.36
2022-08-14T08:29:28.544Z,60.35
2022-08-14T08:32:01.821Z,59.38
2022-08-14T08:34:46.910Z,59.05
2022-08-14T08:37:14.984Z,59.29
2022-08-14T08:40:01.480Z,58.15
2022-08-14T08:42:41.225Z,58.32
2022-08-14T08:45:12.269Z,57.61
2022-08-14T08:47:43.109Z,58.21
2022-08-14T08:53:05.587Z,58.17
2022-08-14T08:55:39.554Z,57.54
2022-08-14T08:58:16.433Z,56.69
2022-08-14T09:00:54.123Z,56.42
2022-08-14T09:03:27.958Z,56.37
2022-08-14T09:06:53.730Z,56.08
2022-08-14T09:08:52.520Z,56.47
2022-08-14T09:11:21.437Z,55.64
2022-08-14T09:13:53.441Z,55.25
2022-08-14T09:16:26.188Z,55.02
2022-08-14T09:18:54.895Z,55.61
2022-08-14T09:21:24.086Z,55.74
2022-08-14T09:24:28.530Z,55.66
2022-08-14T09:26:49.500Z,55.96
2022-08-14T09:29:19.992Z,55.91
2022-08-14T09:31:57.311Z,55.40
2022-08-14T09:35:03.620Z,54.51
2022-08-14T09:37:50.265Z,54.54
2022-08-14T09:40:58.358Z,54.04
2022-08-14T09:43:55.115Z,54.29
2022-08-14T09:46:27.645Z,53.07
2022-08-14T09:49:02.882Z,53.29
2022-08-14T09:51:33.194Z,52.35
2022-08-14T09:54:22.938Z,51.58
2022-08-14T09:56:57.392Z,51.25
2022-08-14T09:59:28.155Z,50.82
2022-08-14T10:01:59.772Z,49.63
2022-08-14T10:04:33.689Z,49.94
2022-08-14T10:07:02.212Z,49.10
2022-08-14T10:09:33.388Z,49.72
2022-08-14T10:12:04.613Z,51.13
2022-08-14T10:14:36.636Z,51.43
2022-08-14T10:17:07.049Z,51.31
2022-08-14T10:19:37.147Z,51.70
2022-08-14T10:23:12.266Z,52.17
2022-08-14T10:24:59.845Z,51.61
2022-08-14T10:27:28.766Z,51.52
2022-08-14T10:30:01.481Z,51.31
2022-08-14T10:32:39.956Z,50.65
2022-08-14T10:35:16.922Z,50.34
2022-08-14T10:37:49.579Z,49.73
2022-08-14T10:40:37.407Z,49.47
2022-08-14T10:43:27.627Z,48.66
2022-08-14T10:46:21.656Z,49.21
2022-08-14T10:49:03.966Z,49.23
2022-08-14T10:51:35.290Z,48.55
2022-08-14T10:54:16.801Z,48.71
2022-08-14T10:56:55.942Z,47.88
2022-08-14T10:59:36.149Z,48.64
2022-08-14T11:02:36.180Z,47.81
2022-08-14T11:05:19.184Z,47.47
2022-08-14T11:07:55.444Z,47.71
2022-08-14T11:10:42.910Z,48.05
2022-08-14T11:13:10.441Z,47.56
2022-08-14T11:15:37.354Z,47.81
2022-08-14T11:18:05.315Z,47.08
2022-08-14T11:20:32.875Z,47.04
2022-08-14T11:23:01.585Z,47.71
2022-08-14T11:25:41.272Z,47.01
2022-08-14T11:28:14.856Z,46.77
2022-08-14T11:30:54.161Z,46.87
2022-08-14T11:33:31.181Z,47.00
2022-08-14T11:36:02.664Z,46.29
2022-08-14T11:38:46.286Z,46.44
2022-08-14T11:41:16.998Z,46.14
2022-08-14T11:43:56.239Z,46.27
2022-08-14T11:46:29.745Z,45.17
2022-08-14T11:49:02.853Z,43.21
2022-08-14T11:51:42.924Z,42.32
2022-08-14T11:54:19.538Z,42.88
2022-08-14T11:56:50.713Z,42.92
2022-08-14T11:59:26.598Z,43.38
2022-08-14T12:03:00.941Z,43.36
2022-08-14T12:05:09.647Z,44.04
2022-08-14T12:07:36.879Z,44.26
2022-08-14T12:10:27.193Z,44.20
2022-08-14T12:13:19.070Z,45.30
2022-08-14T12:16:01.104Z,45.62
2022-08-14T12:18:41.023Z,45.74
2022-08-14T12:21:19.076Z,46.35
2022-08-14T12:24:04.354Z,46.10
2022-08-14T12:26:40.347Z,45.96
2022-08-14T12:29:14.482Z,45.96
2022-08-14T12:31:47.296Z,45.53
2022-08-14T12:34:20.297Z,45.28
2022-08-14T12:36:47.759Z,45.98
2022-08-14T12:39:22.481Z,46.20
2022-08-14T12:42:01.396Z,45.84
2022-08-14T12:44:37.893Z,45.37
2022-08-14T12:47:17.705Z,45.05
2022-08-14T12:49:58.418Z,45.19
2022-08-14T12:52:36.173Z,45.25
2022-08-14T12:55:20.824Z,44.79
2022-08-14T12:57:53.461Z,45.08
2022-08-14T13:00:24.668Z,44.13
2022-08-14T13:02:56.447Z,43.86
2022-08-14T13:05:29.023Z,43.06
2022-08-14T13:07:59.180Z,42.76
2022-08-14T13:10:51.835Z,42.91
2022-08-14T13:13:17.995Z,42.28
2022-08-14T13:15:56.296Z,42.59
2022-08-14T13:18:27.898Z,43.84
2022-08-14T13:21:01.146Z,42.99
2022-08-14T13:23:37.399Z,42.26
2022-08-14T13:26:04.903Z,42.31
2022-08-14T13:28:41.187Z,42.20
2022-08-14T13:31:30.281Z,41.51
2022-08-14T13:34:00.118Z,41.44
2022-08-14T13:36:54.094Z,41.01
2022-08-14T13:39:17.295Z,40.93
2022-08-14T13:41:46.932Z,41.23
2022-08-14T13:44:21.982Z,40.73
2022-08-14T13:46:51.129Z,39.12
2022-08-14T13:49:19.278Z,38.34
2022-08-14T13:51:53.304Z,38.32
2022-08-14T13:54:22.522Z,37.92
2022-08-14T13:56:50.042Z,38.03
2022-08-14T13:59:20.545Z,37.41
2022-08-14T14:02:08.049Z,37.54
2022-08-14T14:04:46.290Z,37.44
2022-08-14T14:07:21.711Z,38.05
2022-08-14T14:09:54.024Z,38.16
2022-08-14T14:12:38.584Z,38.61
2022-08-14T14:15:14.567Z,39.00
2022-08-14T14:17:47.347Z,38.52
2022-08-14T14:20:35.455Z,37.38
2022-08-14T14:23:09.475Z,36.67
2022-08-14T14:25:45.788Z,37.72
2022-08-14T14:28:17.164Z,37.31
2022-08-14T14:30:57.048Z,37.17
2022-08-14T14:36:13.914Z,38.17
2022-08-14T14:38:45.014Z,38.63
2022-08-14T14:41:17.377Z,38.63
2022-08-14T14:43:51.812Z,38.55
2022-08-14T14:46:21.441Z,38.85
2022-08-14T14:48:53.932Z,38.58
2022-08-14T14:51:21.807Z,39.31
2022-08-14T14:53:49.283Z,40.07
2022-08-14T14:56:47.361Z,39.83
2022-08-14T14:59:04.696Z,39.85
2022-08-14T15:01:36.354Z,40.28
2022-08-14T15:04:07.911Z,39.22
2022-08-14T15:06:47.893Z,38.96
2022-08-14T15:09:17.813Z,39.41
2022-08-14T15:11:47.050Z,38.32
2022-08-14T15:14:56.304Z,39.08
2022-08-14T15:17:02.303Z,39.06
2022-08-14T15:19:29.663Z,39.14
2022-08-14T15:21:58.269Z,38.77
2022-08-14T15:24:26.923Z,38.77
2022-08-14T15:26:58.531Z,38.74
2022-08-14T15:29:27.125Z,38.49
2022-08-14T15:31:54.220Z,38.17
2022-08-14T15:34:44.089Z,38.47
2022-08-14T15:37:12.728Z,38.29
2022-08-14T15:39:41.713Z,39.11
2022-08-14T15:42:15.914Z,39.30
2022-08-14T15:44:58.457Z,38.92
2022-08-14T15:47:31.499Z,39.78
2022-08-14T15:50:01.494Z,39.12
2022-08-14T15:52:37.146Z,39.31
2022-08-14T15:55:09.994Z,38.99
2022-08-14T15:58:02.232Z,38.85
2022-08-14T16:00:49.224Z,40.18
2022-08-14T16:03:18.054Z,39.67
2022-08-14T16:05:55.725Z,39.80
2022-08-14T16:08:26.813Z,39.74
2022-08-14T16:11:02.850Z,39.79
2022-08-14T16:13:39.540Z,38.80
2022-08-14T16:16:47.884Z,39.22
2022-08-14T16:19:09.838Z,38.92
2022-08-14T16:21:40.569Z,39.16
2022-08-14T16:24:26.983Z,39.42
2022-08-14T16:27:00.670Z,39.47
2022-08-14T16:29:30.517Z,39.20
2022-08-14T16:32:02.017Z,39.23
2022-08-14T16:34:54.767Z,39.33
2022-08-14T16:37:23.458Z,40.31
2022-08-14T16:39:59.468Z,40.50
2022-08-14T16:42:38.924Z,41.42
2022-08-14T16:45:18.518Z,41.30
2022-08-14T16:47:47.775Z,41.67
2022-08-14T16:50:43.329Z,42.55
2022-08-14T16:53:07.424Z,43.05
2022-08-14T16:55:53.455Z,43.27
2022-08-14T16:58:30.312Z,43.50
2022-08-14T17:01:24.474Z,43.73
2022-08-14T17:04:03.486Z,43.70
2022-08-14T17:06:47.177Z,44.13
2022-08-14T17:09:48.707Z,44.60
2022-08-14T17:12:34.806Z,44.05
2022-08-14T17:15:15.380Z,44.28
2022-08-14T17:17:50.097Z,44.56
2022-08-14T17:20:53.505Z,43.98
2022-08-14T17:23:12.244Z,44.75
2022-08-14T17:25:49.321Z,44.57
2022-08-14T17:28:49.965Z,45.10
2022-08-14T17:31:12.425Z,45.42
2022-08-14T17:33:40.835Z,44.97
2022-08-14T17:36:22.645Z,44.90
2022-08-14T17:39:21.113Z,44.67
2022-08-14T17:42:02.900Z,44.79
2022-08-14T17:44:45.240Z,44.79
2022-08-14T17:47:13.634Z,44.85
2022-08-14T17:49:52.554Z,44.89
2022-08-14T17:52:34.682Z,44.79
2022-08-14T17:55:10.535Z,44.56
2022-08-14T17:57:57.645Z,45.14
2022-08-14T18:00:26.412Z,45.24
2022-08-14T18:02:54.654Z,45.50
2022-08-14T18:06:07.106Z,45.26
2022-08-14T18:08:33.110Z,45.32
2022-08-14T18:11:00.112Z,45.27
2022-08-14T18:13:51.438Z,45.37
2022-08-14T18:16:20.506Z,45.63
2022-08-14T18:18:51.524Z,45.72
2022-08-14T18:21:41.766Z,45.95
2022-08-14T18:24:29.093Z,45.71
2022-08-14T18:27:02.878Z,45.71
2022-08-14T18:29:54.735Z,46.04
2022-08-14T18:32:31.537Z,46.19
2022-08-14T18:35:03.297Z,46.41
2022-08-14T18:37:39.490Z,45.87
2022-08-14T18:40:17.668Z,45.98
2022-08-14T18:43:03.357Z,46.46
2022-08-14T18:45:41.258Z,46.59
2022-08-14T18:48:33.304Z,46.71
2022-08-14T18:51:13.056Z,46.73
2022-08-14T18:53:59.342Z,46.97
2022-08-14T18:56:58.652Z,47.44
2022-08-14T18:59:37.321Z,47.13
2022-08-14T19:02:30.643Z,47.25
2022-08-14T19:05:02.553Z,47.43
2022-08-14T19:07:33.393Z,47.49
2022-08-14T19:10:07.703Z,47.48
2022-08-14T19:12:53.013Z,47.69
2022-08-14T19:15:42.924Z,47.84
2022-08-14T19:18:25.748Z,48.16
2022-08-14T19:20:58.562Z,48.15
2022-08-14T19:23:42.688Z,48.25
2022-08-14T19:26:35.496Z,48.18
2022-08-14T19:29:37.700Z,48.57
2022-08-14T19:32:39.397Z,48.66
2022-08-14T19:35:18.427Z,49.15
2022-08-14T19:37:54.016Z,48.96
2022-08-14T19:40:39.182Z,48.85
2022-08-14T19:43:09.295Z,49.25
2022-08-14T19:45:38.745Z,49.44
2022-08-14T19:48:13.411Z,49.57
2022-08-14T19:50:44.969Z,49.93
2022-08-14T19:53:17.545Z,50.30
2022-08-14T19:56:01.878Z,50.29
2022-08-14T19:58:54.783Z,50.27
2022-08-14T20:01:36.658Z,50.63
2022-08-14T20:04:45.116Z,50.79
2022-08-14T20:07:01.399Z,51.26
2022-08-14T20:11:04.940Z,51.50
2022-08-14T20:12:28.852Z,51.16
2022-08-14T20:15:15.411Z,51.39
2022-08-14T20:17:52.855Z,51.79
2022-08-14T20:20:32.043Z,51.89
2022-08-14T20:23:03.108Z,52.06
2022-08-14T20:25:45.579Z,52.04
2022-08-14T20:28:31.794Z,51.70
2022-08-14T20:31:15.740Z,52.01
2022-08-14T20:34:24.734Z,51.95
2022-08-14T20:37:20.381Z,52.33
2022-08-14T20:39:54.709Z,52.27
2022-08-14T20:42:43.846Z,52.87
2022-08-14T20:45:19.854Z,52.52
2022-08-14T20:48:00.790Z,52.57
2022-08-14T20:50:30.100Z,52.67
2022-08-14T20:53:06.036Z,52.73
2022-08-14T20:55:41.717Z,52.62
2022-08-14T20:58:45.855Z,52.42
2022-08-14T21:01:35.810Z,52.72
2022-08-14T21:04:05.106Z,52.86
2022-08-14T21:07:23.245Z,52.93
2022-08-14T21:09:43.861Z,53.29
2022-08-14T21:12:33.995Z,53.60
2022-08-14T21:15:11.108Z,53.25
2022-08-14T21:17:41.574Z,53.60
2022-08-14T21:20:26.246Z,53.38
2022-08-14T21:23:00.487Z,53.23
2022-08-14T21:25:31.381Z,53.69
2022-08-14T21:28:04.707Z,53.42
2022-08-14T21:30:51.116Z,53.08
2022-08-14T21:33:21.843Z,53.25
2022-08-14T21:35:55.054Z,53.40
2022-08-14T21:38:33.849Z,52.96
2022-08-14T21:41:43.497Z,52.72
2022-08-14T21:44:18.346Z,52.91
2022-08-14T21:46:54.107Z,53.17
2022-08-14T21:49:34.080Z,53.02
2022-08-14T21:52:50.620Z,53.62
2022-08-14T21:55:09.569Z,53.19
2022-08-14T21:57:56.444Z,53.34
2022-08-14T22:00:42.533Z,53.44
2022-08-14T22:03:24.177Z,53.81
2022-08-14T22:05:55.875Z,53.85
2022-08-14T22:08:26.751Z,53.27
2022-08-14T22:10:55.091Z,53.51
2022-08-14T22:13:26.762Z,53.60
2022-08-14T22:16:02.144Z,53.73
2022-08-14T22:18:30.335Z,54.01
2022-08-14T22:20:59.099Z,53.92
2022-08-14T22:23:27.916Z,53.68
2022-08-14T22:25:55.500Z,53.58
2022-08-14T22:28:32.799Z,53.69
2022-08-14T22:31:10.637Z,54.02
2022-08-14T22:33:40.278Z,54.15
2022-08-14T22:36:34.350Z,54.18
2022-08-14T22:39:11.111Z,53.86
2022-08-14T22:41:42.997Z,53.89
2022-08-14T22:44:19.762Z,54.23
2022-08-14T22:46:49.077Z,54.32
2022-08-14T22:50:30.189Z,54.11
2022-08-14T22:52:31.719Z,54.53
2022-08-14T22:54:59.948Z,54.61
2022-08-14T22:57:37.810Z,54.27
2022-08-14T23:00:16.394Z,54.99
2022-08-14T23:02:44.650Z,55.06
2022-08-14T23:05:13.042Z,54.98
2022-08-14T23:08:57.706Z,54.78
2022-08-14T23:10:31.929Z,54.90
2022-08-14T23:13:02.544Z,55.33
2022-08-14T23:15:30.084Z,55.21
2022-08-14T23:17:58.196Z,55.29
2022-08-14T23:20:29.209Z,55.45
2022-08-14T23:22:57.741Z,55.72
2022-08-14T23:25:56.634Z,56.12
2022-08-14T23:28:35.043Z,56.03
2022-08-14T23:31:15.828Z,55.80
2022-08-14T23:34:06.521Z,55.89
2022-08-14T23:36:37.543Z,56.04
2022-08-14T23:39:20.032Z,56.41
2022-08-14T23:41:52.731Z,56.25
2022-08-14T23:44:23.627Z,56.81
2022-08-14T23:46:56.984Z,56.80
2022-08-14T23:49:56.589Z,56.63
2022-08-14T23:52:50.216Z,56.59
2022-08-14T23:55:06.917Z,56.52
2022-08-14T23:57:44.228Z,56.75
